Terminal Aerodrome Forecast
Issued by NWS

Home | Current Version | Previous Version | Text Only | Print | Product List | Glossary On
Versions: 1 2 3 4 5 6 7 8 9 10 11 12 13
000
FTUS45 KRIW 201100
TAFCOD
TAF
KCOD 201120Z 2012/2112 24015G25KT P6SM BKN100
     FM201400 23011KT P6SM BKN100
     FM201900 23012G18KT P6SM SCT050 BKN100
     FM210600 25018G28KT P6SM BKN100
      AMD LTD TO CLD VIS AND WIND=

USA.gov is the U.S. government's official web portal to all federal, state and local government web resources and services.